Tropical Cyclones
[Index]
Main Index Home Page Stock Weather Photos Extreme Storms Discussion Storm News and Storm Chasing Reports Tropical Cyclones / Hurricanes / Typhoons Weather Data and Links Wild Fires / Bushfires Weather Observation Techniques Weather Picture Catalogue Tornado Pictures and Reports Stock Video Footage and DVDs for sale
Season 2006-2007 Tropical Cyclone ENOK Track Map
Season 2006-2007 Summaries: [BoM-AU] [JTWC-AU] [JTWC-SIO] [JTWC-SPAC] [JTWC-SH]
<<- Previous TC | JTWC 2006-2007 Season | Next TC ->>

click for intensity scale information  Lat/long Grid: Show Hide

 Date Labels: Show Hide

Joint Typhoon Warning Centre Cyclone Data

Name: ENOK

05 Feb 2007 18:00 UTC to 12 Feb 2007 00:00 UTC

    date/time    lat    long     hPa   cat  kts
2007-02-05 18   19.1    50.2    1004         20          
2007-02-06 00   19.1    50.4    1007         20          
2007-02-06 06   18.9    50.5    1007         20          
2007-02-06 12   18.6    50.4    1007         20          
2007-02-06 18   18.4    50.2    1007         20          
2007-02-07 00   18.1    50.1    1004         25          
2007-02-07 06   17.6    50.1    1002         25          
2007-02-07 12   17.1    50.4    1004         25          
2007-02-07 18   16.6    50.8    1004         25          
2007-02-08 00   16.2    51.1    1000         30          
2007-02-08 06   15.7    51.5    1000         30          
2007-02-08 12   15.8    51.9    1000         30          
2007-02-08 18   15.5    52.3    1000         30          
2007-02-09 00   15.3    52.9    1000         30          
2007-02-09 06   15.2    54.0     997         35          
2007-02-09 12   15.1    55.6     994    1    40          
2007-02-09 18   15.6    57.4     987    1    50          
2007-02-10 00   16.2    59.2     984    2    55          
2007-02-10 00   16.2    59.2     984    2    55          
2007-02-10 06   17.2    60.7     981    2    55          
2007-02-10 06   17.2    60.7     981    2    55          
2007-02-10 12   18.2    62.2     987    1    50          
2007-02-10 18   19.4    63.2     993    1    40          
2007-02-11 00   20.7    64.0     996         35          
2007-02-11 06   21.9    64.2     997         35          
2007-02-11 12   22.8    64.7    1000         30          
2007-02-11 18   23.3    64.6    1004         25          
2007-02-12 00   23.6    64.1    1004         25          
Winds are 1-min average.

Tropical cyclone tracks developed by Michael Bath using data from the Joint Typhoon Warning Centre Best Tracks and Google Maps.


[Australian Severe Weather index] [Copyright Notice] [Email Contacts] [Search This Site] [Privacy Policy]
Document: tropical_cyclone_enok.htm Updated: 28 June 2017